sensor_id;sensor_type;location;lat;lon;timestamp;temperature;humidity
12827;DHT22;66927;48.812;9.118;2023-12-29T00:01:34;9.70;99.90
12827;DHT22;66927;48.812;9.118;2023-12-29T00:04:00;9.60;99.90
12827;DHT22;66927;48.812;9.118;2023-12-29T00:06:26;9.60;99.90
12827;DHT22;66927;48.812;9.118;2023-12-29T00:08:52;9.60;99.90
12827;DHT22;66927;48.812;9.118;2023-12-29T00:11:21;9.70;99.90
12827;DHT22;66927;48.812;9.118;2023-12-29T00:13:47;9.70;99.90
12827;DHT22;66927;48.812;9.118;2023-12-29T00:16:14;9.60;99.90
12827;DHT22;66927;48.812;9.118;2023-12-29T00:18:40;9.70;99.90
12827;DHT22;66927;48.812;9.118;2023-12-29T00:21:05;9.70;99.90
12827;DHT22;66927;48.812;9.118;2023-12-29T00:23:32;9.70;99.90
12827;DHT22;66927;48.812;9.118;2023-12-29T00:25:58;9.70;99.90
12827;DHT22;66927;48.812;9.118;2023-12-29T00:28:23;9.70;99.90
12827;DHT22;66927;48.812;9.118;2023-12-29T00:30:49;9.70;99.90
12827;DHT22;66927;48.812;9.118;2023-12-29T00:33:15;9.70;99.90
12827;DHT22;66927;48.812;9.118;2023-12-29T00:35:40;9.70;99.90
12827;DHT22;66927;48.812;9.118;2023-12-29T00:38:06;9.70;99.90
12827;DHT22;66927;48.812;9.118;2023-12-29T00:40:32;9.70;99.90
12827;DHT22;66927;48.812;9.118;2023-12-29T00:43:00;9.70;99.90
12827;DHT22;66927;48.812;9.118;2023-12-29T00:45:26;9.60;99.90
12827;DHT22;66927;48.812;9.118;2023-12-29T00:47:54;9.60;99.90
12827;DHT22;66927;48.812;9.118;2023-12-29T00:50:22;9.60;99.90
12827;DHT22;66927;48.812;9.118;2023-12-29T00:52:47;9.60;99.90
12827;DHT22;66927;48.812;9.118;2023-12-29T00:55:13;9.60;99.90
12827;DHT22;66927;48.812;9.118;2023-12-29T00:57:39;9.60;99.90
12827;DHT22;66927;48.812;9.118;2023-12-29T01:00:05;9.60;99.90
12827;DHT22;66927;48.812;9.118;2023-12-29T01:02:32;9.60;99.90
12827;DHT22;66927;48.812;9.118;2023-12-29T01:04:58;9.60;99.90
12827;DHT22;66927;48.812;9.118;2023-12-29T01:07:24;9.60;99.90
12827;DHT22;66927;48.812;9.118;2023-12-29T01:09:49;9.70;99.90
12827;DHT22;66927;48.812;9.118;2023-12-29T01:12:15;9.60;99.90
12827;DHT22;66927;48.812;9.118;2023-12-29T01:14:40;9.60;99.90
12827;DHT22;66927;48.812;9.118;2023-12-29T01:17:06;9.60;99.90
12827;DHT22;66927;48.812;9.118;2023-12-29T01:19:32;9.70;99.90
12827;DHT22;66927;48.812;9.118;2023-12-29T01:21:58;9.70;99.90
12827;DHT22;66927;48.812;9.118;2023-12-29T01:24:24;9.70;99.90
12827;DHT22;66927;48.812;9.118;2023-12-29T01:26:49;9.70;99.90
12827;DHT22;66927;48.812;9.118;2023-12-29T01:29:15;9.70;99.90
12827;DHT22;66927;48.812;9.118;2023-12-29T01:31:40;9.70;99.90
12827;DHT22;66927;48.812;9.118;2023-12-29T01:34:06;9.70;99.90
12827;DHT22;66927;48.812;9.118;2023-12-29T01:36:32;9.70;99.90
12827;DHT22;66927;48.812;9.118;2023-12-29T01:38:57;9.70;99.90
12827;DHT22;66927;48.812;9.118;2023-12-29T01:41:23;9.70;99.90
12827;DHT22;66927;48.812;9.118;2023-12-29T01:46:28;9.80;99.90
12827;DHT22;66927;48.812;9.118;2023-12-29T01:48:58;9.90;99.90
12827;DHT22;66927;48.812;9.118;2023-12-29T01:51:25;9.90;99.90
12827;DHT22;66927;48.812;9.118;2023-12-29T01:53:52;9.80;99.90
12827;DHT22;66927;48.812;9.118;2023-12-29T01:56:21;9.80;99.90
12827;DHT22;66927;48.812;9.118;2023-12-29T01:58:49;9.90;99.90
12827;DHT22;66927;48.812;9.118;2023-12-29T02:01:15;9.90;99.90
12827;DHT22;66927;48.812;9.118;2023-12-29T02:03:43;9.80;99.90
12827;DHT22;66927;48.812;9.118;2023-12-29T02:06:09;9.90;99.90
12827;DHT22;66927;48.812;9.118;2023-12-29T02:08:36;9.80;99.90
12827;DHT22;66927;48.812;9.118;2023-12-29T02:11:03;9.80;99.90
12827;DHT22;66927;48.812;9.118;2023-12-29T02:13:29;9.90;99.90
12827;DHT22;66927;48.812;9.118;2023-12-29T02:16:00;9.80;99.90
12827;DHT22;66927;48.812;9.118;2023-12-29T02:18:29;9.80;99.90
12827;DHT22;66927;48.812;9.118;2023-12-29T02:20:57;9.80;99.90
12827;DHT22;66927;48.812;9.118;2023-12-29T02:23:22;9.80;99.90
12827;DHT22;66927;48.812;9.118;2023-12-29T02:25:48;9.80;99.90
12827;DHT22;66927;48.812;9.118;2023-12-29T02:28:25;9.90;99.90
12827;DHT22;66927;48.812;9.118;2023-12-29T02:31:06;9.90;99.90
12827;DHT22;66927;48.812;9.118;2023-12-29T02:33:38;9.80;99.90
12827;DHT22;66927;48.812;9.118;2023-12-29T02:36:06;9.90;99.90
12827;DHT22;66927;48.812;9.118;2023-12-29T02:38:32;9.80;99.90
12827;DHT22;66927;48.812;9.118;2023-12-29T02:40:59;9.80;99.90
12827;DHT22;66927;48.812;9.118;2023-12-29T02:43:25;9.80;99.90
12827;DHT22;66927;48.812;9.118;2023-12-29T02:45:50;9.80;99.90
12827;DHT22;66927;48.812;9.118;2023-12-29T02:48:16;9.90;99.90
12827;DHT22;66927;48.812;9.118;2023-12-29T02:50:43;9.80;99.90
12827;DHT22;66927;48.812;9.118;2023-12-29T02:53:08;9.80;99.90
12827;DHT22;66927;48.812;9.118;2023-12-29T02:55:34;9.90;99.90
12827;DHT22;66927;48.812;9.118;2023-12-29T02:58:18;9.80;99.90
12827;DHT22;66927;48.812;9.118;2023-12-29T03:00:43;9.90;99.90
12827;DHT22;66927;48.812;9.118;2023-12-29T03:03:20;9.80;99.90
12827;DHT22;66927;48.812;9.118;2023-12-29T03:05:45;9.80;99.90
12827;DHT22;66927;48.812;9.118;2023-12-29T03:08:20;9.70;99.90
12827;DHT22;66927;48.812;9.118;2023-12-29T03:10:45;9.70;99.90
12827;DHT22;66927;48.812;9.118;2023-12-29T03:13:11;9.70;99.90
12827;DHT22;66927;48.812;9.118;2023-12-29T03:15:36;9.70;99.90
12827;DHT22;66927;48.812;9.118;2023-12-29T03:18:05;9.70;99.90
12827;DHT22;66927;48.812;9.118;2023-12-29T03:20:42;9.70;99.90
12827;DHT22;66927;48.812;9.118;2023-12-29T03:23:08;9.70;99.90
12827;DHT22;66927;48.812;9.118;2023-12-29T03:25:45;9.60;99.90
12827;DHT22;66927;48.812;9.118;2023-12-29T03:28:12;9.60;99.90
12827;DHT22;66927;48.812;9.118;2023-12-29T03:30:38;9.60;99.90
12827;DHT22;66927;48.812;9.118;2023-12-29T03:33:06;9.60;99.90
12827;DHT22;66927;48.812;9.118;2023-12-29T03:35:31;9.50;99.90
12827;DHT22;66927;48.812;9.118;2023-12-29T03:37:57;9.50;99.90
12827;DHT22;66927;48.812;9.118;2023-12-29T03:40:22;9.50;99.90
12827;DHT22;66927;48.812;9.118;2023-12-29T03:42:48;9.50;99.90
12827;DHT22;66927;48.812;9.118;2023-12-29T03:45:14;9.40;99.90
12827;DHT22;66927;48.812;9.118;2023-12-29T03:47:39;9.40;99.90
12827;DHT22;66927;48.812;9.118;2023-12-29T03:50:05;9.40;99.90
12827;DHT22;66927;48.812;9.118;2023-12-29T03:52:31;9.40;99.90
12827;DHT22;66927;48.812;9.118;2023-12-29T03:54:57;9.40;99.90
12827;DHT22;66927;48.812;9.118;2023-12-29T03:57:22;9.50;99.90
12827;DHT22;66927;48.812;9.118;2023-12-29T03:59:48;9.50;99.90
12827;DHT22;66927;48.812;9.118;2023-12-29T04:02:13;9.40;99.90
12827;DHT22;66927;48.812;9.118;2023-12-29T04:04:39;9.40;99.90
12827;DHT22;66927;48.812;9.118;2023-12-29T04:07:05;9.40;99.90
12827;DHT22;66927;48.812;9.118;2023-12-29T04:09:31;9.40;99.90
12827;DHT22;66927;48.812;9.118;2023-12-29T04:11:56;9.40;99.90
12827;DHT22;66927;48.812;9.118;2023-12-29T04:14:22;9.40;99.90
12827;DHT22;66927;48.812;9.118;2023-12-29T04:16:48;9.40;99.90
12827;DHT22;66927;48.812;9.118;2023-12-29T04:19:13;9.40;99.90
12827;DHT22;66927;48.812;9.118;2023-12-29T04:21:39;9.40;99.90
12827;DHT22;66927;48.812;9.118;2023-12-29T04:24:05;9.40;99.90
12827;DHT22;66927;48.812;9.118;2023-12-29T04:26:38;9.40;99.90
12827;DHT22;66927;48.812;9.118;2023-12-29T04:29:03;9.40;99.90
12827;DHT22;66927;48.812;9.118;2023-12-29T04:31:29;9.40;99.90
12827;DHT22;66927;48.812;9.118;2023-12-29T04:33:55;9.40;99.90
12827;DHT22;66927;48.812;9.118;2023-12-29T04:36:20;9.40;99.90
12827;DHT22;66927;48.812;9.118;2023-12-29T04:38:46;9.40;99.90
12827;DHT22;66927;48.812;9.118;2023-12-29T04:41:12;9.40;99.90
12827;DHT22;66927;48.812;9.118;2023-12-29T04:43:38;9.40;99.90
12827;DHT22;66927;48.812;9.118;2023-12-29T04:46:04;9.30;99.90
12827;DHT22;66927;48.812;9.118;2023-12-29T04:48:29;9.30;99.90
12827;DHT22;66927;48.812;9.118;2023-12-29T04:50:55;9.30;99.90
12827;DHT22;66927;48.812;9.118;2023-12-29T04:53:21;9.30;99.90
12827;DHT22;66927;48.812;9.118;2023-12-29T04:55:46;9.30;99.90
12827;DHT22;66927;48.812;9.118;2023-12-29T04:58:12;9.30;99.90
12827;DHT22;66927;48.812;9.118;2023-12-29T05:00:37;9.30;99.90
12827;DHT22;66927;48.812;9.118;2023-12-29T05:03:03;9.40;99.90
12827;DHT22;66927;48.812;9.118;2023-12-29T05:05:29;9.30;99.90
12827;DHT22;66927;48.812;9.118;2023-12-29T05:07:54;9.40;99.90
12827;DHT22;66927;48.812;9.118;2023-12-29T05:10:23;9.40;99.90
12827;DHT22;66927;48.812;9.118;2023-12-29T05:12:48;9.40;99.90
12827;DHT22;66927;48.812;9.118;2023-12-29T05:15:14;9.40;99.90
12827;DHT22;66927;48.812;9.118;2023-12-29T05:17:39;9.50;99.90
12827;DHT22;66927;48.812;9.118;2023-12-29T05:20:07;9.50;99.90
12827;DHT22;66927;48.812;9.118;2023-12-29T05:22:33;9.50;99.90
12827;DHT22;66927;48.812;9.118;2023-12-29T05:24:58;9.50;99.90
12827;DHT22;66927;48.812;9.118;2023-12-29T05:27:26;9.50;99.90
12827;DHT22;66927;48.812;9.118;2023-12-29T05:29:52;9.50;99.90
12827;DHT22;66927;48.812;9.118;2023-12-29T05:32:18;9.50;99.90
12827;DHT22;66927;48.812;9.118;2023-12-29T05:34:44;9.50;99.90
12827;DHT22;66927;48.812;9.118;2023-12-29T05:37:09;9.40;99.90
12827;DHT22;66927;48.812;9.118;2023-12-29T05:39:35;9.40;99.90
12827;DHT22;66927;48.812;9.118;2023-12-29T05:42:00;9.30;99.90
12827;DHT22;66927;48.812;9.118;2023-12-29T05:44:26;9.40;99.90
12827;DHT22;66927;48.812;9.118;2023-12-29T05:46:52;9.40;99.90
12827;DHT22;66927;48.812;9.118;2023-12-29T05:49:24;9.40;99.90
12827;DHT22;66927;48.812;9.118;2023-12-29T05:51:50;9.40;99.90
12827;DHT22;66927;48.812;9.118;2023-12-29T05:54:19;9.30;99.90
12827;DHT22;66927;48.812;9.118;2023-12-29T05:56:44;9.30;99.90
12827;DHT22;66927;48.812;9.118;2023-12-29T05:59:10;9.30;99.90
12827;DHT22;66927;48.812;9.118;2023-12-29T06:01:36;9.30;99.90
12827;DHT22;66927;48.812;9.118;2023-12-29T06:04:02;9.30;99.90
12827;DHT22;66927;48.812;9.118;2023-12-29T06:06:30;9.30;99.90
12827;DHT22;66927;48.812;9.118;2023-12-29T06:08:56;9.30;99.90
12827;DHT22;66927;48.812;9.118;2023-12-29T06:11:21;9.30;99.90
12827;DHT22;66927;48.812;9.118;2023-12-29T06:13:47;9.30;99.90
12827;DHT22;66927;48.812;9.118;2023-12-29T06:16:20;9.30;99.90
12827;DHT22;66927;48.812;9.118;2023-12-29T06:18:47;9.40;99.90
12827;DHT22;66927;48.812;9.118;2023-12-29T06:21:13;9.30;99.90
12827;DHT22;66927;48.812;9.118;2023-12-29T06:23:39;9.30;99.90
12827;DHT22;66927;48.812;9.118;2023-12-29T06:26:04;9.30;99.90
12827;DHT22;66927;48.812;9.118;2023-12-29T06:28:30;9.30;99.90
12827;DHT22;66927;48.812;9.118;2023-12-29T06:30:56;9.30;99.90
12827;DHT22;66927;48.812;9.118;2023-12-29T06:33:22;9.30;99.90
12827;DHT22;66927;48.812;9.118;2023-12-29T06:35:48;9.30;99.90
12827;DHT22;66927;48.812;9.118;2023-12-29T06:38:14;9.30;99.90
12827;DHT22;66927;48.812;9.118;2023-12-29T06:40:40;9.30;99.90
12827;DHT22;66927;48.812;9.118;2023-12-29T06:43:05;9.30;99.90
12827;DHT22;66927;48.812;9.118;2023-12-29T06:45:31;9.30;99.90
12827;DHT22;66927;48.812;9.118;2023-12-29T06:47:57;9.30;99.90
12827;DHT22;66927;48.812;9.118;2023-12-29T06:50:23;9.30;99.90
12827;DHT22;66927;48.812;9.118;2023-12-29T06:52:48;9.30;99.90
12827;DHT22;66927;48.812;9.118;2023-12-29T06:55:14;9.30;99.90
12827;DHT22;66927;48.812;9.118;2023-12-29T06:57:39;9.30;99.90
12827;DHT22;66927;48.812;9.118;2023-12-29T07:00:05;9.30;99.90
12827;DHT22;66927;48.812;9.118;2023-12-29T07:02:32;9.30;99.90
12827;DHT22;66927;48.812;9.118;2023-12-29T07:04:58;9.30;99.90
12827;DHT22;66927;48.812;9.118;2023-12-29T07:07:24;9.30;99.90
12827;DHT22;66927;48.812;9.118;2023-12-29T07:09:50;9.30;99.90
12827;DHT22;66927;48.812;9.118;2023-12-29T07:12:15;9.30;99.90
12827;DHT22;66927;48.812;9.118;2023-12-29T07:14:41;9.30;99.90
12827;DHT22;66927;48.812;9.118;2023-12-29T07:17:08;9.20;99.90
12827;DHT22;66927;48.812;9.118;2023-12-29T07:19:35;9.30;99.90
12827;DHT22;66927;48.812;9.118;2023-12-29T07:22:03;9.40;99.90
12827;DHT22;66927;48.812;9.118;2023-12-29T07:24:30;9.40;99.90
12827;DHT22;66927;48.812;9.118;2023-12-29T07:26:56;9.40;99.90
12827;DHT22;66927;48.812;9.118;2023-12-29T07:29:22;9.40;99.90
12827;DHT22;66927;48.812;9.118;2023-12-29T07:31:48;9.40;99.90
12827;DHT22;66927;48.812;9.118;2023-12-29T07:34:14;9.40;99.90
12827;DHT22;66927;48.812;9.118;2023-12-29T07:36:40;9.40;99.90
12827;DHT22;66927;48.812;9.118;2023-12-29T07:39:06;9.40;99.90
12827;DHT22;66927;48.812;9.118;2023-12-29T07:41:32;9.40;99.90
12827;DHT22;66927;48.812;9.118;2023-12-29T07:43:58;9.30;99.90
12827;DHT22;66927;48.812;9.118;2023-12-29T07:46:25;9.40;99.90
12827;DHT22;66927;48.812;9.118;2023-12-29T07:48:51;9.40;99.90
12827;DHT22;66927;48.812;9.118;2023-12-29T07:51:17;9.40;99.90
12827;DHT22;66927;48.812;9.118;2023-12-29T07:53:43;9.40;99.90
12827;DHT22;66927;48.812;9.118;2023-12-29T07:56:10;9.40;99.90
12827;DHT22;66927;48.812;9.118;2023-12-29T07:58:36;9.40;99.90
12827;DHT22;66927;48.812;9.118;2023-12-29T08:01:02;9.40;99.90
12827;DHT22;66927;48.812;9.118;2023-12-29T08:03:27;9.40;99.90
12827;DHT22;66927;48.812;9.118;2023-12-29T08:05:53;9.40;99.90
12827;DHT22;66927;48.812;9.118;2023-12-29T08:08:19;9.50;99.90
12827;DHT22;66927;48.812;9.118;2023-12-29T08:10:44;9.60;99.90
12827;DHT22;66927;48.812;9.118;2023-12-29T08:13:10;9.50;99.90
12827;DHT22;66927;48.812;9.118;2023-12-29T08:15:36;9.60;99.90
12827;DHT22;66927;48.812;9.118;2023-12-29T08:18:04;9.60;99.90
12827;DHT22;66927;48.812;9.118;2023-12-29T08:20:29;9.50;99.90
12827;DHT22;66927;48.812;9.118;2023-12-29T08:22:55;9.60;99.90
12827;DHT22;66927;48.812;9.118;2023-12-29T08:25:22;9.60;99.90
12827;DHT22;66927;48.812;9.118;2023-12-29T08:27:48;9.60;99.90
12827;DHT22;66927;48.812;9.118;2023-12-29T08:30:14;9.60;99.90
12827;DHT22;66927;48.812;9.118;2023-12-29T08:32:40;9.60;99.90
12827;DHT22;66927;48.812;9.118;2023-12-29T08:35:05;9.60;99.90
12827;DHT22;66927;48.812;9.118;2023-12-29T08:37:32;9.60;99.90
12827;DHT22;66927;48.812;9.118;2023-12-29T08:39:59;9.60;99.90
12827;DHT22;66927;48.812;9.118;2023-12-29T08:42:27;9.70;99.90
12827;DHT22;66927;48.812;9.118;2023-12-29T08:44:53;9.70;99.90
12827;DHT22;66927;48.812;9.118;2023-12-29T08:47:19;9.70;99.90
12827;DHT22;66927;48.812;9.118;2023-12-29T08:49:44;9.70;99.90
12827;DHT22;66927;48.812;9.118;2023-12-29T08:52:11;9.70;99.90
12827;DHT22;66927;48.812;9.118;2023-12-29T08:54:36;9.70;99.90
12827;DHT22;66927;48.812;9.118;2023-12-29T08:57:03;9.70;99.90
12827;DHT22;66927;48.812;9.118;2023-12-29T08:59:29;9.70;99.90
12827;DHT22;66927;48.812;9.118;2023-12-29T09:01:54;9.70;99.90
12827;DHT22;66927;48.812;9.118;2023-12-29T09:04:20;9.70;99.90
12827;DHT22;66927;48.812;9.118;2023-12-29T09:06:46;9.70;99.90
12827;DHT22;66927;48.812;9.118;2023-12-29T09:09:11;9.70;99.90
12827;DHT22;66927;48.812;9.118;2023-12-29T09:11:39;9.70;99.90
12827;DHT22;66927;48.812;9.118;2023-12-29T09:14:05;9.70;99.90
12827;DHT22;66927;48.812;9.118;2023-12-29T09:16:31;9.70;99.90
12827;DHT22;66927;48.812;9.118;2023-12-29T09:18:56;9.70;99.90
12827;DHT22;66927;48.812;9.118;2023-12-29T09:21:22;9.80;99.90
12827;DHT22;66927;48.812;9.118;2023-12-29T09:23:48;9.80;99.90
12827;DHT22;66927;48.812;9.118;2023-12-29T09:26:13;9.80;99.90
12827;DHT22;66927;48.812;9.118;2023-12-29T09:28:42;9.80;99.90
12827;DHT22;66927;48.812;9.118;2023-12-29T09:31:12;9.80;99.90
12827;DHT22;66927;48.812;9.118;2023-12-29T09:33:37;9.90;99.90
12827;DHT22;66927;48.812;9.118;2023-12-29T09:36:04;9.90;99.90
12827;DHT22;66927;48.812;9.118;2023-12-29T09:38:29;9.90;99.90
12827;DHT22;66927;48.812;9.118;2023-12-29T09:40:59;10.00;99.90
12827;DHT22;66927;48.812;9.118;2023-12-29T09:43:25;10.00;99.90
12827;DHT22;66927;48.812;9.118;2023-12-29T09:45:52;10.00;99.90
12827;DHT22;66927;48.812;9.118;2023-12-29T09:48:19;10.00;99.90
12827;DHT22;66927;48.812;9.118;2023-12-29T09:50:46;10.00;99.90
12827;DHT22;66927;48.812;9.118;2023-12-29T09:53:12;10.00;99.90
12827;DHT22;66927;48.812;9.118;2023-12-29T09:55:40;10.10;99.90
12827;DHT22;66927;48.812;9.118;2023-12-29T09:58:08;10.00;99.90
12827;DHT22;66927;48.812;9.118;2023-12-29T10:00:34;10.00;99.90
12827;DHT22;66927;48.812;9.118;2023-12-29T10:03:01;10.00;99.90
12827;DHT22;66927;48.812;9.118;2023-12-29T10:05:27;10.10;99.90
12827;DHT22;66927;48.812;9.118;2023-12-29T10:07:53;10.10;99.90
12827;DHT22;66927;48.812;9.118;2023-12-29T10:10:20;10.10;99.90
12827;DHT22;66927;48.812;9.118;2023-12-29T10:12:48;10.10;99.90
12827;DHT22;66927;48.812;9.118;2023-12-29T10:15:30;10.10;99.90
12827;DHT22;66927;48.812;9.118;2023-12-29T10:18:32;10.20;99.90
12827;DHT22;66927;48.812;9.118;2023-12-29T10:21:19;10.10;99.90
12827;DHT22;66927;48.812;9.118;2023-12-29T10:24:08;10.20;99.90
12827;DHT22;66927;48.812;9.118;2023-12-29T10:26:35;10.30;99.90
12827;DHT22;66927;48.812;9.118;2023-12-29T10:29:01;10.30;99.90
12827;DHT22;66927;48.812;9.118;2023-12-29T10:31:27;10.40;99.90
12827;DHT22;66927;48.812;9.118;2023-12-29T10:34:19;10.40;99.90
12827;DHT22;66927;48.812;9.118;2023-12-29T10:36:49;10.40;99.90
12827;DHT22;66927;48.812;9.118;2023-12-29T10:39:15;10.50;99.90
12827;DHT22;66927;48.812;9.118;2023-12-29T10:41:41;10.60;99.90
12827;DHT22;66927;48.812;9.118;2023-12-29T10:44:08;10.70;99.90
12827;DHT22;66927;48.812;9.118;2023-12-29T10:46:33;10.80;99.90
12827;DHT22;66927;48.812;9.118;2023-12-29T10:49:21;10.80;99.90
12827;DHT22;66927;48.812;9.118;2023-12-29T10:51:47;10.90;99.90
12827;DHT22;66927;48.812;9.118;2023-12-29T10:54:20;11.00;99.90
12827;DHT22;66927;48.812;9.118;2023-12-29T10:57:02;11.00;99.90
12827;DHT22;66927;48.812;9.118;2023-12-29T10:59:28;11.10;99.90
12827;DHT22;66927;48.812;9.118;2023-12-29T11:01:54;11.10;99.90
12827;DHT22;66927;48.812;9.118;2023-12-29T11:04:22;11.20;99.90
12827;DHT22;66927;48.812;9.118;2023-12-29T11:06:48;11.20;99.90
12827;DHT22;66927;48.812;9.118;2023-12-29T11:09:33;11.40;99.90
12827;DHT22;66927;48.812;9.118;2023-12-29T11:12:01;11.50;99.90
12827;DHT22;66927;48.812;9.118;2023-12-29T11:14:27;11.60;99.90
12827;DHT22;66927;48.812;9.118;2023-12-29T11:16:57;11.60;99.90
12827;DHT22;66927;48.812;9.118;2023-12-29T11:19:26;11.70;99.90
12827;DHT22;66927;48.812;9.118;2023-12-29T11:21:54;11.80;99.90
12827;DHT22;66927;48.812;9.118;2023-12-29T11:24:20;11.80;99.90
12827;DHT22;66927;48.812;9.118;2023-12-29T11:26:46;11.80;99.90
12827;DHT22;66927;48.812;9.118;2023-12-29T11:29:12;11.80;99.90
12827;DHT22;66927;48.812;9.118;2023-12-29T11:31:41;11.80;99.90
12827;DHT22;66927;48.812;9.118;2023-12-29T11:34:14;11.90;99.90
12827;DHT22;66927;48.812;9.118;2023-12-29T11:36:46;11.90;99.90
12827;DHT22;66927;48.812;9.118;2023-12-29T11:42:05;12.10;99.90
12827;DHT22;66927;48.812;9.118;2023-12-29T11:44:31;12.10;99.90
12827;DHT22;66927;48.812;9.118;2023-12-29T11:46:58;12.20;99.90
12827;DHT22;66927;48.812;9.118;2023-12-29T11:49:25;12.10;99.90
12827;DHT22;66927;48.812;9.118;2023-12-29T11:51:51;12.10;99.90
12827;DHT22;66927;48.812;9.118;2023-12-29T11:54:26;12.10;99.90
12827;DHT22;66927;48.812;9.118;2023-12-29T11:56:55;12.00;99.90
12827;DHT22;66927;48.812;9.118;2023-12-29T11:59:22;12.00;99.90
12827;DHT22;66927;48.812;9.118;2023-12-29T12:01:53;11.90;99.90
12827;DHT22;66927;48.812;9.118;2023-12-29T12:04:38;11.80;99.90
12827;DHT22;66927;48.812;9.118;2023-12-29T12:09:34;11.90;99.90
12827;DHT22;66927;48.812;9.118;2023-12-29T12:12:02;12.10;99.90
12827;DHT22;66927;48.812;9.118;2023-12-29T12:14:49;12.10;99.90
12827;DHT22;66927;48.812;9.118;2023-12-29T12:17:34;12.20;99.90
12827;DHT22;66927;48.812;9.118;2023-12-29T12:20:07;12.30;99.90
12827;DHT22;66927;48.812;9.118;2023-12-29T12:22:37;12.30;99.90
12827;DHT22;66927;48.812;9.118;2023-12-29T12:25:03;12.30;99.90
12827;DHT22;66927;48.812;9.118;2023-12-29T12:27:32;12.30;99.90
12827;DHT22;66927;48.812;9.118;2023-12-29T12:29:58;12.40;99.90
12827;DHT22;66927;48.812;9.118;2023-12-29T12:32:26;12.40;99.90
12827;DHT22;66927;48.812;9.118;2023-12-29T12:34:54;12.40;99.90
12827;DHT22;66927;48.812;9.118;2023-12-29T12:37:24;12.40;99.90
12827;DHT22;66927;48.812;9.118;2023-12-29T12:39:50;12.40;99.90
12827;DHT22;66927;48.812;9.118;2023-12-29T12:42:17;12.40;99.90
12827;DHT22;66927;48.812;9.118;2023-12-29T12:47:37;12.40;99.90
12827;DHT22;66927;48.812;9.118;2023-12-29T12:50:05;12.40;99.90
12827;DHT22;66927;48.812;9.118;2023-12-29T12:52:33;12.40;99.90
12827;DHT22;66927;48.812;9.118;2023-12-29T12:55:00;12.40;99.90
12827;DHT22;66927;48.812;9.118;2023-12-29T12:57:27;12.30;99.90
12827;DHT22;66927;48.812;9.118;2023-12-29T12:59:54;12.20;99.90
12827;DHT22;66927;48.812;9.118;2023-12-29T13:02:20;12.30;99.90
12827;DHT22;66927;48.812;9.118;2023-12-29T13:04:46;12.20;99.90
12827;DHT22;66927;48.812;9.118;2023-12-29T13:07:17;12.20;99.90
12827;DHT22;66927;48.812;9.118;2023-12-29T13:09:45;12.20;99.90
12827;DHT22;66927;48.812;9.118;2023-12-29T13:12:14;12.20;99.90
12827;DHT22;66927;48.812;9.118;2023-12-29T13:14:42;12.10;99.90
12827;DHT22;66927;48.812;9.118;2023-12-29T13:17:12;12.10;99.90
12827;DHT22;66927;48.812;9.118;2023-12-29T13:19:39;12.00;99.90
12827;DHT22;66927;48.812;9.118;2023-12-29T13:22:09;12.00;99.90
12827;DHT22;66927;48.812;9.118;2023-12-29T13:24:35;11.90;99.90
12827;DHT22;66927;48.812;9.118;2023-12-29T13:27:07;11.90;99.90
12827;DHT22;66927;48.812;9.118;2023-12-29T13:29:35;11.90;99.90
12827;DHT22;66927;48.812;9.118;2023-12-29T13:32:22;11.90;99.90
12827;DHT22;66927;48.812;9.118;2023-12-29T13:37:25;11.80;99.90
12827;DHT22;66927;48.812;9.118;2023-12-29T13:42:43;11.70;99.90
12827;DHT22;66927;48.812;9.118;2023-12-29T13:45:11;11.70;99.90
12827;DHT22;66927;48.812;9.118;2023-12-29T13:47:38;11.70;99.90
12827;DHT22;66927;48.812;9.118;2023-12-29T13:50:04;11.70;99.90
12827;DHT22;66927;48.812;9.118;2023-12-29T13:52:31;11.70;99.90
12827;DHT22;66927;48.812;9.118;2023-12-29T13:54:57;11.60;99.90
12827;DHT22;66927;48.812;9.118;2023-12-29T13:57:33;11.60;99.90
12827;DHT22;66927;48.812;9.118;2023-12-29T14:00:18;11.60;99.90
12827;DHT22;66927;48.812;9.118;2023-12-29T14:02:55;11.60;99.90
12827;DHT22;66927;48.812;9.118;2023-12-29T14:10:33;11.70;99.90
12827;DHT22;66927;48.812;9.118;2023-12-29T14:13:09;11.70;99.90
12827;DHT22;66927;48.812;9.118;2023-12-29T14:15:37;11.60;99.90
12827;DHT22;66927;48.812;9.118;2023-12-29T14:20:49;11.60;99.90
12827;DHT22;66927;48.812;9.118;2023-12-29T14:23:17;11.60;99.90
12827;DHT22;66927;48.812;9.118;2023-12-29T14:25:43;11.50;99.90
12827;DHT22;66927;48.812;9.118;2023-12-29T14:28:20;11.60;99.90
12827;DHT22;66927;48.812;9.118;2023-12-29T14:30:48;11.50;99.90
12827;DHT22;66927;48.812;9.118;2023-12-29T14:33:14;11.50;99.90
12827;DHT22;66927;48.812;9.118;2023-12-29T14:35:40;11.50;99.90
12827;DHT22;66927;48.812;9.118;2023-12-29T14:38:06;11.50;99.90
12827;DHT22;66927;48.812;9.118;2023-12-29T14:40:32;11.50;99.90
12827;DHT22;66927;48.812;9.118;2023-12-29T14:43:02;11.50;99.90
12827;DHT22;66927;48.812;9.118;2023-12-29T14:45:28;11.40;99.90
12827;DHT22;66927;48.812;9.118;2023-12-29T14:47:58;11.40;99.90
12827;DHT22;66927;48.812;9.118;2023-12-29T14:50:24;11.40;99.90
12827;DHT22;66927;48.812;9.118;2023-12-29T14:52:49;11.50;99.90
12827;DHT22;66927;48.812;9.118;2023-12-29T14:55:15;11.50;99.90
12827;DHT22;66927;48.812;9.118;2023-12-29T14:57:41;11.40;99.90
12827;DHT22;66927;48.812;9.118;2023-12-29T15:00:10;11.40;99.90
12827;DHT22;66927;48.812;9.118;2023-12-29T15:02:36;11.40;99.90
12827;DHT22;66927;48.812;9.118;2023-12-29T15:05:03;11.30;99.90
12827;DHT22;66927;48.812;9.118;2023-12-29T15:07:29;11.30;99.90
12827;DHT22;66927;48.812;9.118;2023-12-29T15:09:59;11.30;99.90
12827;DHT22;66927;48.812;9.118;2023-12-29T15:12:24;11.30;99.90
12827;DHT22;66927;48.812;9.118;2023-12-29T15:14:50;11.30;99.90
12827;DHT22;66927;48.812;9.118;2023-12-29T15:17:16;11.40;99.90
12827;DHT22;66927;48.812;9.118;2023-12-29T15:19:41;11.40;99.90
12827;DHT22;66927;48.812;9.118;2023-12-29T15:22:07;11.40;99.90
12827;DHT22;66927;48.812;9.118;2023-12-29T15:24:32;11.30;99.90
12827;DHT22;66927;48.812;9.118;2023-12-29T15:26:58;11.30;99.90
12827;DHT22;66927;48.812;9.118;2023-12-29T15:29:23;11.30;99.90
12827;DHT22;66927;48.812;9.118;2023-12-29T15:31:49;11.30;99.90
12827;DHT22;66927;48.812;9.118;2023-12-29T15:34:15;11.30;99.90
12827;DHT22;66927;48.812;9.118;2023-12-29T15:36:41;11.20;99.90
12827;DHT22;66927;48.812;9.118;2023-12-29T15:39:06;11.20;99.90
12827;DHT22;66927;48.812;9.118;2023-12-29T15:41:32;11.20;99.90
12827;DHT22;66927;48.812;9.118;2023-12-29T15:43:58;11.20;99.90
12827;DHT22;66927;48.812;9.118;2023-12-29T15:46:24;11.20;99.90
12827;DHT22;66927;48.812;9.118;2023-12-29T15:48:50;11.20;99.90
12827;DHT22;66927;48.812;9.118;2023-12-29T15:51:16;11.20;99.90
12827;DHT22;66927;48.812;9.118;2023-12-29T15:53:42;11.20;99.90
12827;DHT22;66927;48.812;9.118;2023-12-29T15:56:07;11.20;99.90
12827;DHT22;66927;48.812;9.118;2023-12-29T15:58:33;11.30;99.90
12827;DHT22;66927;48.812;9.118;2023-12-29T16:00:59;11.20;99.90
12827;DHT22;66927;48.812;9.118;2023-12-29T16:03:25;11.10;99.90
12827;DHT22;66927;48.812;9.118;2023-12-29T16:05:52;11.10;99.90